createdAt,value
2022-12-01T10:43:39.544Z,95658.97
2022-12-01T10:46:32.811Z,95657.78
2022-12-01T10:49:07.822Z,95653.50
2022-12-01T10:51:48.542Z,95646.16
2022-12-01T10:54:16.474Z,95639.22
2022-12-01T10:56:47.833Z,95631.88
2022-12-01T10:59:22.734Z,95633.50
2022-12-01T11:01:50.651Z,95632.31
2022-12-01T11:04:45.351Z,95642.03
2022-12-01T11:07:20.927Z,95632.47
2022-12-01T11:10:06.513Z,95635.91
2022-12-01T11:12:35.102Z,95636.75
2022-12-01T11:15:03.442Z,95629.84
2022-12-01T11:17:36.205Z,95624.91
2022-12-01T11:20:28.238Z,95633.09
2022-12-01T11:23:26.752Z,95630.63
2022-12-01T11:26:34.615Z,95629.19
2022-12-01T11:29:07.327Z,95625.75
2022-12-01T11:31:48.162Z,95625.31
2022-12-01T11:34:22.703Z,95611.91
2022-12-01T11:36:53.876Z,95624.13
2022-12-01T11:39:32.754Z,95610.25
2022-12-01T11:42:03.578Z,95627.38
2022-12-01T11:47:24.798Z,95614.53
2022-12-01T11:50:01.819Z,95628.78
2022-12-01T11:52:48.047Z,95628.19
2022-12-01T11:55:15.629Z,95636.75
2022-12-01T11:57:48.792Z,95627.41
2022-12-01T12:00:44.009Z,95630.25
2022-12-01T12:03:16.961Z,95628.00
2022-12-01T12:06:38.968Z,95605.78
2022-12-01T12:09:10.876Z,95612.94
2022-12-01T12:11:52.687Z,95627.19
2022-12-01T12:14:53.017Z,95628.22
2022-12-01T12:17:35.161Z,95627.81
2022-12-01T12:20:43.626Z,95611.09
2022-12-01T12:23:20.117Z,95613.13
2022-12-01T12:26:05.907Z,95630.22
2022-12-01T12:28:53.652Z,95613.16
2022-12-01T12:31:39.236Z,95627.38
2022-12-01T12:37:05.098Z,95630.69
2022-12-01T12:39:57.262Z,95626.19
2022-12-01T12:42:52.718Z,95614.16
2022-12-01T12:46:11.430Z,95626.59
2022-12-01T12:49:21.933Z,95632.31
2022-12-01T12:51:55.596Z,95626.59
2022-12-01T12:54:46.003Z,95624.31
2022-12-01T12:57:33.363Z,95622.13
2022-12-01T13:00:03.214Z,95625.53
2022-12-01T13:02:41.408Z,95625.38
2022-12-01T13:05:17.876Z,95617.22
2022-12-01T13:07:56.570Z,95631.50
2022-12-01T13:11:11.673Z,95630.25
2022-12-01T13:14:03.326Z,95632.72
2022-12-01T13:16:48.261Z,95637.19
2022-12-01T13:19:27.540Z,95620.66
2022-12-01T13:21:56.008Z,95630.41
2022-12-01T13:24:30.599Z,95606.75
2022-12-01T13:27:03.371Z,95620.44
2022-12-01T13:29:38.396Z,95617.78
2022-12-01T13:32:27.618Z,95625.16
2022-12-01T13:34:55.586Z,95614.53
2022-12-01T13:37:30.169Z,95616.00
2022-12-01T13:40:20.318Z,95613.34
2022-12-01T13:43:05.457Z,95617.00
2022-12-01T13:45:38.729Z,95626.78
2022-12-01T13:48:25.427Z,95634.50
2022-12-01T13:50:52.972Z,95634.03
2022-12-01T13:53:20.104Z,95621.22
2022-12-01T13:56:16.851Z,95627.56
2022-12-01T13:58:50.681Z,95632.66
2022-12-01T14:01:21.700Z,95635.50
2022-12-01T14:04:11.095Z,95628.56
2022-12-01T14:06:46.724Z,95629.59
2022-12-01T14:09:36.212Z,95619.63
2022-12-01T14:12:20.078Z,95623.69
2022-12-01T14:15:00.774Z,95627.13
2022-12-01T14:17:34.992Z,95621.63
2022-12-01T14:20:19.079Z,95620.22
2022-12-01T14:22:50.528Z,95625.25
2022-12-01T14:25:20.888Z,95627.91
2022-12-01T14:27:54.668Z,95623.00
2022-12-01T14:30:45.292Z,95626.50
2022-12-01T14:33:41.049Z,95620.41
2022-12-01T14:36:27.373Z,95630.56
2022-12-01T14:38:57.937Z,95613.44
2022-12-01T14:41:26.589Z,95627.44
2022-12-01T14:44:05.019Z,95619.13
2022-12-01T14:46:55.048Z,95627.06
2022-12-01T14:49:27.644Z,95611.94
2022-12-01T14:52:02.988Z,95623.31
2022-12-01T14:54:39.342Z,95624.78
2022-12-01T14:57:11.047Z,95618.84
2022-12-01T14:59:41.438Z,95616.13
2022-12-01T15:02:12.310Z,95629.63
2022-12-01T15:05:08.121Z,95624.78
2022-12-01T15:07:45.957Z,95620.13
2022-12-01T15:10:37.441Z,95625.44
2022-12-01T15:13:22.878Z,95621.13
2022-12-01T15:15:53.787Z,95625.16
2022-12-01T15:18:28.578Z,95617.19
2022-12-01T15:21:01.317Z,95622.69
2022-12-01T15:23:28.646Z,95627.31
2022-12-01T15:25:56.573Z,95629.19
2022-12-01T15:28:35.691Z,95615.00
2022-12-01T15:31:12.753Z,95626.38
2022-12-01T15:33:52.262Z,95624.53
2022-12-01T15:36:20.473Z,95622.22
2022-12-01T15:38:49.716Z,95619.22
2022-12-01T15:41:30.652Z,95615.00
2022-12-01T15:44:03.807Z,95632.31
2022-12-01T15:46:34.771Z,95622.31
2022-12-01T15:49:20.744Z,95620.66
2022-12-01T15:51:50.465Z,95632.25
2022-12-01T15:54:25.448Z,95633.91
2022-12-01T15:56:59.084Z,95629.63
2022-12-01T15:59:37.070Z,95630.25
2022-12-01T16:02:15.727Z,95635.75
2022-12-01T16:04:43.827Z,95645.31
2022-12-01T16:07:11.852Z,95635.50
2022-12-01T16:09:42.347Z,95638.53
2022-12-01T16:12:09.843Z,95636.84
2022-12-01T16:14:37.417Z,95629.34
2022-12-01T16:17:09.321Z,95637.44
2022-12-01T16:19:39.155Z,95633.69
2022-12-01T16:22:22.524Z,95639.91
2022-12-01T16:24:54.137Z,95641.44
2022-12-01T16:27:28.412Z,95625.41
2022-12-01T16:30:02.487Z,95641.06
2022-12-01T16:32:39.349Z,95638.63
2022-12-01T16:35:22.451Z,95636.31
2022-12-01T16:37:50.036Z,95633.59
2022-12-01T16:40:17.929Z,95627.69
2022-12-01T16:42:47.416Z,95622.22
2022-12-01T16:45:15.142Z,95629.63
2022-12-01T16:47:43.979Z,95625.59
2022-12-01T16:50:19.019Z,95627.06
2022-12-01T16:52:46.954Z,95628.84
2022-12-01T16:55:52.672Z,95624.81
2022-12-01T16:58:20.532Z,95628.84
2022-12-01T17:00:53.066Z,95627.63
2022-12-01T17:03:26.767Z,95633.59
2022-12-01T17:05:55.385Z,95635.41
2022-12-01T17:08:23.397Z,95629.22
2022-12-01T17:10:51.664Z,95627.59
2022-12-01T17:13:23.599Z,95621.28
2022-12-01T17:15:53.958Z,95631.69
2022-12-01T17:18:24.383Z,95627.59
2022-12-01T17:21:00.931Z,95637.38
2022-12-01T17:23:30.280Z,95635.75
2022-12-01T17:26:00.119Z,95633.84
2022-12-01T17:28:28.399Z,95624.69
2022-12-01T17:31:00.615Z,95634.53
2022-12-01T17:33:28.497Z,95631.56
2022-12-01T17:35:59.157Z,95629.13
2022-12-01T17:38:26.810Z,95629.53
2022-12-01T17:41:06.578Z,95632.31
2022-12-01T17:43:35.911Z,95637.75
2022-12-01T17:46:04.440Z,95633.69
2022-12-01T17:48:40.759Z,95617.84
2022-12-01T17:51:09.152Z,95617.13
2022-12-01T17:53:39.730Z,95613.09
2022-12-01T17:56:12.889Z,95614.50
2022-12-01T17:58:41.367Z,95633.59
2022-12-01T18:01:17.177Z,95625.16
2022-12-01T18:03:47.277Z,95632.25
2022-12-01T18:06:15.962Z,95618.63
2022-12-01T18:08:43.612Z,95628.22
2022-12-01T18:11:14.182Z,95621.72
2022-12-01T18:13:44.368Z,95627.25
2022-12-01T18:16:18.906Z,95632.88
2022-12-01T18:18:46.865Z,95637.25
2022-12-01T18:21:16.852Z,95634.78
2022-12-01T18:23:55.266Z,95626.72
2022-12-01T18:26:23.472Z,95632.25
2022-12-01T18:29:00.812Z,95636.53
2022-12-01T18:31:30.626Z,95636.47
2022-12-01T18:34:02.720Z,95631.41
2022-12-01T18:36:32.279Z,95634.03
2022-12-01T18:39:01.359Z,95631.81
2022-12-01T18:41:29.189Z,95615.63
2022-12-01T18:43:56.775Z,95629.25
2022-12-01T18:46:24.214Z,95621.72
2022-12-01T18:48:55.606Z,95614.88
2022-12-01T18:51:22.854Z,95626.38
2022-12-01T18:53:54.638Z,95619.22
2022-12-01T18:56:22.018Z,95622.47
2022-12-01T18:58:57.962Z,95608.34
2022-12-01T19:01:32.248Z,95620.00
2022-12-01T19:04:00.869Z,95618.28
2022-12-01T19:06:29.192Z,95615.19
2022-12-01T19:09:01.230Z,95605.25
2022-12-01T19:11:29.335Z,95613.19
2022-12-01T19:13:57.730Z,95616.44
2022-12-01T19:16:25.623Z,95615.28
2022-12-01T19:18:53.752Z,95613.25
2022-12-01T19:21:21.429Z,95614.03
2022-12-01T19:23:50.617Z,95614.06
2022-12-01T19:26:20.330Z,95616.94
2022-12-01T19:28:48.236Z,95608.97
2022-12-01T19:31:19.571Z,95609.56
2022-12-01T19:33:47.829Z,95610.69
2022-12-01T19:36:20.516Z,95610.00
2022-12-01T19:38:48.868Z,95600.38
2022-12-01T19:41:16.325Z,95615.88
2022-12-01T19:43:44.080Z,95615.88
2022-12-01T19:46:16.407Z,95619.41
2022-12-01T19:48:46.248Z,95620.78
2022-12-01T19:51:22.559Z,95611.66
2022-12-01T19:53:53.946Z,95589.78
2022-12-01T19:56:22.330Z,95618.09
2022-12-01T19:58:50.802Z,95602.22
2022-12-01T20:01:19.501Z,95608.97
2022-12-01T20:03:49.959Z,95610.59
2022-12-01T20:06:31.251Z,95598.72
2022-12-01T20:09:01.471Z,95605.06
2022-12-01T20:11:30.256Z,95609.06
2022-12-01T20:13:58.405Z,95613.09
2022-12-01T20:16:28.084Z,95609.91
2022-12-01T20:18:56.216Z,95612.94
2022-12-01T20:21:26.585Z,95607.53
2022-12-01T20:24:00.160Z,95610.38
2022-12-01T20:26:31.276Z,95611.41
2022-12-01T20:29:02.762Z,95609.16
2022-12-01T20:31:32.165Z,95590.38
2022-12-01T20:34:02.768Z,95607.53
2022-12-01T20:36:30.280Z,95599.88
2022-12-01T20:38:58.375Z,95612.31
2022-12-01T20:41:27.060Z,95612.69
2022-12-01T20:43:54.778Z,95608.44
2022-12-01T20:46:22.983Z,95608.44
2022-12-01T20:48:50.968Z,95605.53
2022-12-01T20:51:18.889Z,95612.06
2022-12-01T20:54:05.569Z,95609.56
2022-12-01T20:56:34.314Z,95601.50
2022-12-01T20:59:01.863Z,95610.66
2022-12-01T21:01:29.598Z,95616.97
2022-12-01T21:03:57.365Z,95611.91
2022-12-01T21:06:25.198Z,95603.81
2022-12-01T21:08:52.826Z,95605.47
2022-12-01T21:11:41.857Z,95611.03
2022-12-01T21:14:30.236Z,95612.31
2022-12-01T21:17:06.037Z,95611.28
2022-12-01T21:19:47.601Z,95609.63
2022-12-01T21:22:15.427Z,95612.16
2022-12-01T21:24:44.245Z,95614.72
2022-12-01T21:27:16.759Z,95617.44
2022-12-01T21:29:46.930Z,95607.84
2022-12-01T21:32:19.900Z,95617.63
2022-12-01T21:34:48.299Z,95608.41
2022-12-01T21:37:24.649Z,95608.75
2022-12-01T21:39:53.810Z,95607.63
2022-12-01T21:42:25.830Z,95586.22
2022-12-01T21:44:55.659Z,95600.19
2022-12-01T21:47:25.941Z,95611.59
2022-12-01T21:49:56.470Z,95612.13
2022-12-01T21:52:34.770Z,95608.94
2022-12-01T21:55:09.538Z,95604.06
2022-12-01T21:57:43.028Z,95613.25
2022-12-01T22:00:29.241Z,95613.69
2022-12-01T22:03:08.909Z,95616.31
2022-12-01T22:05:41.761Z,95600.41
2022-12-01T22:08:21.177Z,95586.66
2022-12-01T22:10:51.400Z,95607.97
2022-12-01T22:13:22.399Z,95602.56
2022-12-01T22:15:52.709Z,95598.84
2022-12-01T22:18:25.679Z,95599.63
2022-12-01T22:20:54.409Z,95604.06
2022-12-01T22:23:32.199Z,95603.06
2022-12-01T22:26:00.179Z,95582.78
2022-12-01T22:28:27.460Z,95598.50
2022-12-01T22:30:55.364Z,95598.53
2022-12-01T22:33:25.012Z,95586.91
2022-12-01T22:35:53.219Z,95601.75
2022-12-01T22:38:34.182Z,95594.66
2022-12-01T22:41:16.088Z,95585.50
2022-12-01T22:43:56.330Z,95589.19
2022-12-01T22:46:36.073Z,95587.09
2022-12-01T22:49:20.358Z,95589.56
2022-12-01T22:52:26.209Z,95597.38
2022-12-01T22:54:53.733Z,95589.16
2022-12-01T22:57:33.440Z,95590.88
2022-12-01T23:00:15.960Z,95590.47
2022-12-01T23:02:43.957Z,95586.72
2022-12-01T23:05:29.470Z,95579.09
2022-12-01T23:07:57.870Z,95570.03
2022-12-01T23:10:29.360Z,95572.97
2022-12-01T23:13:00.988Z,95583.97
2022-12-01T23:15:37.827Z,95585.63
2022-12-01T23:18:20.642Z,95579.75
2022-12-01T23:20:54.552Z,95566.66
2022-12-01T23:23:27.385Z,95572.63
2022-12-01T23:25:55.259Z,95569.31
2022-12-01T23:28:23.332Z,95560.28
2022-12-01T23:30:54.921Z,95580.72
2022-12-01T23:33:30.381Z,95575.66
2022-12-01T23:36:26.888Z,95556.28
2022-12-01T23:39:01.437Z,95571.19
2022-12-01T23:41:31.647Z,95573.03
2022-12-01T23:44:03.791Z,95581.94
2022-12-01T23:46:32.633Z,95579.50
2022-12-01T23:49:02.972Z,95573.19
2022-12-01T23:51:38.466Z,95569.75
2022-12-01T23:54:18.394Z,95574.44
2022-12-01T23:56:52.325Z,95571.22
2022-12-01T23:59:20.556Z,95572.56
